Meteo Giornale » Osservazioni meteo Stati Uniti (USA) » Wheaton
ore: 19:53 - Osservazioni Meteo Wheaton
Lat. 45° 42' N Lon. 96° 30' W Alt. 313 metri s.l.m.
23 °C
Sereno
Temp. 24 Ore
17 °C
29 °C
Nord
0 Km/h
Dew point 16 °C
Umidità 64 %
Visibilità 10 Km
Il sole sorge alle ore 06:46
Il sole tramonta alle ore 20:06
| Data e Ora | Cielo e Fenomeni | T °C | DP °C | Um. % | Pres. hPa | Vis. km | Vento km/h | |
|---|---|---|---|---|---|---|---|---|
| Oggi h: 19:53 | Sereno | 23 | 16 | 64 | 1012 | 10 | N 0 | |
| Oggi h: 19:33 | Sereno | 25 | 14 | 50 | 1012 | 10 | N 0 | |
| Oggi h: 19:13 | Sereno | 26 | 14 | 47 | 1012 | 10 | N 5.5 | |
| Oggi h: 18:53 | Sereno | 26 | 14 | 47 | 1012 | 10 | N 5.5 | |
| Oggi h: 18:33 | Sereno | 27 | 13 | 42 | 1012 | 10 | SO 7.4 | |
| Oggi h: 18:13 | Sereno | 27 | 13 | 42 | 1012 | 10 | SO 7.4 | |
| Oggi h: 17:54 | Sereno | 28 | 13 | 39 | 1012 | 10 | SO 9.3 | |
| Oggi h: 17:33 | Sereno | 28 | 12 | 37 | 1012 | 10 | N 5.5 | |
| Oggi h: 17:13 | Sereno | 28 | 12 | 37 | 1012 | 10 | O/SO 13 | |
| Oggi h: 16:53 | Sereno | 28 | 14 | 42 | 1012 | 10 | SO 9.3 | |
| Oggi h: 16:33 | Sereno | 29 | 13 | 37 | 1012 | 10 | SO 13 | |
| Oggi h: 16:13 | Sereno | 29 | 15 | 42 | 1012 | 10 | N 0 | |
| Oggi h: 15:53 | Sereno | 29 | 13 | 37 | 1012 | 10 | O 7.4 | |
| Oggi h: 15:34 | Sereno | 29 | 16 | 45 | 1012 | 10 | O/SO 11.1 | |
| Oggi h: 15:13 | Sereno | 28 | 16 | 48 | 1012 | 10 | S/SO 9.3 | |
| Oggi h: 14:53 | Sereno | 28 | 15 | 45 | 1013 | 10 | N 5.5 | |
| Oggi h: 14:33 | Sereno | 28 | 14 | 42 | 1013 | 10 | O/SO 9.3 | |
| Oggi h: 14:13 | Sereno | 27 | 13 | 42 | 1013 | 10 | NO 13 | |
| Oggi h: 13:53 | Sereno | 27 | 14 | 44 | 1013 | 10 | O/SO 7.4 | |
| Oggi h: 13:33 | Sereno | 27 | 14 | 44 | 1013 | 10 | N 5.5 | |
| Oggi h: 13:14 | Sereno | 26 | 13 | 44 | 1013 | 10 | N 5.5 | |
| Oggi h: 12:53 | Sereno | 26 | 14 | 47 | 1013 | 10 | O/NO 7.4 | |
| Oggi h: 12:33 | Sereno | 25 | 14 | 50 | 1013 | 10 | NO 11.1 | |
| Oggi h: 12:13 | Sereno | 25 | 14 | 50 | 1013 | 10 | NO 9.3 | |
| Oggi h: 11:53 | Sereno | 24 | 14 | 53 | 1013 | 10 | O/NO 9.3 | |
| Oggi h: 11:33 | Sereno | 24 | 14 | 53 | 1013 | 10 | N/NO 7.4 | |
| Oggi h: 11:13 | Sereno | 23 | 14 | 56 | 1013 | 10 | NO 7.4 | |
| Oggi h: 10:54 | Sereno | 23 | 15 | 60 | 1013 | 10 | N 5.5 | |
| Oggi h: 10:33 | Sereno | 22 | 15 | 64 | 1013 | 10 | N/NO 7.4 | |
| Oggi h: 10:13 | Sereno | 21 | 16 | 73 | 1013 | 10 | N 0 | |
| Oggi h: 09:53 | Sereno | 21 | 16 | 73 | 1013 | 10 | N 0 | |
| Oggi h: 09:33 | Sereno | 19 | 15 | 77 | 1013 | 10 | O/NO 7.4 | |
| Oggi h: 09:13 | Sereno | 19 | 15 | 77 | 1012 | 10 | N 5.5 | |
| Oggi h: 08:53 | Sereno | 18 | 15 | 82 | 1012 | 10 | O/NO 9.3 | |
| Oggi h: 08:34 | Sereno | 18 | 16 | 88 | 1012 | 10 | O/NO 9.3 | |
| Oggi h: 08:13 | Sereno | 18 | 16 | 88 | 1012 | 10 | NO 7.4 | |
| Oggi h: 07:53 | Sereno | 18 | 16 | 88 | 1011 | 10 | N 5.5 | |
| Oggi h: 07:33 | Sereno | 17 | 16 | 93 | 1011 | 10 | N 5.5 | |
| Oggi h: 07:13 | Sereno | 17 | 16 | 93 | 1011 | 10 | O/NO 7.4 | |
| Oggi h: 06:53 | Sereno | 17 | 16 | 93 | 1010 | 10 | O/NO 11.1 | |
| Oggi h: 06:33 | Sereno | 17 | 16 | 93 | 1010 | 10 | O/NO 13 | |
| Oggi h: 06:14 | Sereno | 18 | 16 | 88 | 1010 | 10 | O/NO 13 | |
| Oggi h: 05:53 | Sereno | 18 | 17 | 93 | 1009 | 10 | O/NO 13 | |
| Oggi h: 05:33 | Sereno | 18 | 17 | 93 | 1009 | 10 | O/NO 14.8 | |
| Oggi h: 05:13 | Sereno | 18 | 17 | 93 | 1009 | 10 | O/NO 16.7 | |
| Oggi h: 04:53 | Sereno | 19 | 17 | 88 | 1009 | 10 | O/NO 16.7 | |
| Oggi h: 04:33 | Sereno | 19 | 17 | 88 | 1008 | 10 | O/NO 16.7 | |
| Oggi h: 04:13 | Sereno | 20 | 18 | 88 | 1008 | 10 | O/NO 16.7 | |
| Oggi h: 03:54 | Sereno | 20 | 18 | 88 | 1008 | 10 | O/NO 14.8 | |
| Oggi h: 03:33 | Sereno | 21 | 19 | 88 | 1007 | 10 | O/NO 14.8 | |
| Oggi h: 03:13 | Sereno | 21 | 19 | 88 | 1007 | 10 | O 11.1 | |
| Oggi h: 02:53 | Sereno | 21 | 19 | 88 | 1007 | 10 | O/NO 9.3 | |
| Oggi h: 02:33 | Sereno | 22 | 20 | 88 | 1007 | 10 | O/NO 7.4 | |
| Oggi h: 02:13 | Sereno | 22 | 21 | 94 | 1007 | 10 | O/NO 18.5 | |
| Oggi h: 01:53 | Sereno | 22 | 21 | 94 | 1007 | 11 | O/NO 22.2 | |
| Oggi h: 01:34 | Foschia | 21 | 20 | 94 | 1007 | 2 | O 7.4 | |
| Oggi h: 01:13 | Foschia | 21 | 20 | 94 | 1007 | 6 | N 5.5 | |
| Oggi h: 00:53 | Foschia | 20 | 19 | 93 | 1006 | 5 | O/SO 7.4 | |
| Oggi h: 00:33 | Foschia | 20 | 19 | 93 | 1006 | 2 | N 5.5 | |
| Oggi h: 00:13 | Foschia | 21 | 19 | 88 | 1006 | 6 | N 5.5 | |
| Ieri h: 23:53 | Foschia | 20 | 19 | 93 | 1006 | 6 | N 0 | |
| Ieri h: 23:33 | Foschia | 20 | 19 | 93 | 1005 | 8 | E/SE 7.4 | |
| Ieri h: 23:14 | Foschia | 21 | 19 | 88 | 1005 | 8 | E/SE 9.3 | |
| Ieri h: 22:53 | Sereno | 21 | 19 | 88 | 1006 | 11 | E 11.1 | |
| Ieri h: 22:33 | Sereno | 22 | 21 | 94 | 1006 | 10 | N 5.5 | |
| Ieri h: 22:13 | Sereno | 22 | 21 | 94 | 1006 | 11 | N 5.5 | |
| Ieri h: 21:53 | Sereno | 22 | 21 | 94 | 1007 | 10 | N 0 | |
| Ieri h: 21:33 | Sereno | 22 | 21 | 94 | 1007 | 10 | N 0 | |
| Ieri h: 21:13 | Sereno | 23 | 21 | 88 | 1006 | 10 | E/SE 7.4 | |
| Ieri h: 20:54 | Sereno | 23 | 22 | 94 | 1005 | 10 | SE 13 | |
| Ieri h: 20:33 | Sereno | 23 | 22 | 94 | 1005 | 10 | E/SE 13 | |



